Llucmajor, Spain
Current Conditions -  °F | °C
As of 7:30 PM on Thursday 29 Jan 2015 (Local Time) from LEPA Reporting Station
Few Clouds Few Clouds  
Wind Chill: 57°   Ceiling: Unl
Heat Index: 57°   Visibility: 6mi
Dew Point: 52°   Wind: 10mph
Humidity: 82%   Direction: 240°WSW
Pressure: 29.59"   Gusts: NA
Location:  39.49°N, 2.89°E
Report Text: LEPA 291830Z 24009KT 200V280 9999 FEW036 14/11 Q1002 NOSIG
Loading
Personal Weather Stations






























Interactive Weather Map New forecast layout! Learn more

10-Day Weather Forecast

Advertisements
Track Severe Weather on mobile